Time;durP1;ratioP1;P1;durP2;ratioP2;P2;SDS_P1;SDS_P2;PMS_P1;PMS_P2;Temp;Humidity;BMP_temperature;BMP_pressure;BME280_temperature;BME280_humidity;BME280_pressure;Samples;Min_cycle;Max_cycle;Signal;HPM_P1;HPM_P2
2021/11/11 00:00:19;;;;;;;10.00;8.70;;;7.70;99.90;;;;;;5013254;28;20196;-60
2021/11/11 00:02:45;;;;;;;12.00;9.80;;;7.70;99.90;;;;;;5013022;28;20196;-56
2021/11/11 00:05:12;;;;;;;10.87;9.33;;;7.70;99.90;;;;;;5013055;28;20191;-56
2021/11/11 00:07:38;;;;;;;12.37;9.27;;;7.60;99.90;;;;;;4993286;28;20643;-57
2021/11/11 00:10:05;;;;;;;10.13;8.63;;;7.70;99.90;;;;;;4993614;28;20181;-60
2021/11/11 00:12:32;;;;;;;10.50;9.37;;;7.60;99.90;;;;;;4993041;28;20201;-56
2021/11/11 00:15:03;;;;;;;11.70;9.10;;;7.70;99.90;;;;;;4993574;28;20207;-58
2021/11/11 00:17:29;;;;;;;11.37;8.87;;;7.60;99.90;;;;;;4993455;28;20169;-55
2021/11/11 00:19:55;;;;;;;13.00;10.00;;;7.60;99.90;;;;;;4993332;28;20177;-59
2021/11/11 00:22:20;;;;;;;11.10;9.57;;;7.60;99.90;;;;;;4993037;28;20216;-55
2021/11/11 00:24:47;;;;;;;13.93;10.30;;;8.70;99.90;;;;;;4993164;28;20188;-57
2021/11/11 00:27:12;;;;;;;13.43;9.87;;;7.60;99.90;;;;;;4993256;28;20169;-61
2021/11/11 00:29:39;;;;;;;12.13;9.67;;;7.50;99.90;;;;;;4992989;28;20192;-58
2021/11/11 00:32:05;;;;;;;14.20;9.83;;;7.50;99.90;;;;;;4992152;28;20215;-55
2021/11/11 00:34:31;;;;;;;10.93;9.67;;;7.40;99.90;;;;;;4993017;28;20173;-63
2021/11/11 00:36:56;;;;;;;11.10;9.23;;;7.30;99.90;;;;;;4992995;28;20659;-61
2021/11/11 00:39:22;;;;;;;10.77;9.47;;;7.30;99.90;;;;;;4993575;28;20209;-57
2021/11/11 00:41:48;;;;;;;12.33;9.70;;;7.30;99.90;;;;;;4992860;28;20189;-59
2021/11/11 00:44:13;;;;;;;13.93;9.23;;;7.30;99.90;;;;;;4992960;28;20300;-59
2021/11/11 00:46:39;;;;;;;10.60;9.20;;;7.20;99.90;;;;;;4992720;28;20591;-58
2021/11/11 00:49:08;;;;;;;11.43;8.93;;;7.30;99.90;;;;;;4993362;28;20188;-57
2021/11/11 00:51:35;;;;;;;10.20;8.83;;;7.30;99.90;;;;;;4992556;28;20194;-58
2021/11/11 00:54:01;;;;;;;10.10;8.13;;;7.30;99.90;;;;;;4992494;28;20567;-58
2021/11/11 00:56:27;;;;;;;13.03;9.23;;;7.40;99.90;;;;;;4992377;28;20189;-61
2021/11/11 00:58:53;;;;;;;11.17;9.00;;;7.40;99.90;;;;;;4992915;28;20185;-60
2021/11/11 01:01:19;;;;;;;13.07;9.70;;;7.40;99.90;;;;;;4999585;28;20204;-60
2021/11/11 01:03:45;;;;;;;10.23;8.80;;;7.30;99.90;;;;;;5011796;28;20598;-59
2021/11/11 01:06:11;;;;;;;9.33;7.73;;;7.30;99.90;;;;;;5011919;28;20464;-58
2021/11/11 01:08:38;;;;;;;9.73;7.87;;;7.40;99.90;;;;;;5011717;28;20554;-61
2021/11/11 01:11:05;;;;;;;10.00;7.90;;;7.40;99.90;;;;;;5012075;28;20243;-57
2021/11/11 01:13:32;;;;;;;8.90;7.63;;;7.40;99.90;;;;;;5011096;28;20204;-58
2021/11/11 01:15:58;;;;;;;8.63;7.17;;;7.30;99.90;;;;;;5011930;28;20204;-58
2021/11/11 01:18:24;;;;;;;9.13;7.27;;;7.30;99.90;;;;;;5011693;28;20287;-61
2021/11/11 01:20:49;;;;;;;8.30;6.90;;;7.30;99.90;;;;;;5011643;28;20342;-59
2021/11/11 01:23:15;;;;;;;10.57;7.10;;;7.20;99.90;;;;;;5011341;28;20187;-51
2021/11/11 01:25:41;;;;;;;8.40;7.37;;;7.20;99.90;;;;;;5011971;28;20687;-62
2021/11/11 01:28:08;;;;;;;10.00;8.20;;;7.20;99.90;;;;;;5011394;28;20177;-58
2021/11/11 01:30:35;;;;;;;12.10;8.23;;;7.20;99.90;;;;;;5011823;28;20180;-57
2021/11/11 01:33:02;;;;;;;11.07;9.03;;;7.10;99.90;;;;;;5011438;28;20729;-60
2021/11/11 01:35:27;;;;;;;9.80;7.93;;;6.90;99.90;;;;;;5011594;28;20177;-59
2021/11/11 01:37:53;;;;;;;9.70;8.37;;;6.90;99.90;;;;;;5011435;28;20250;-59
2021/11/11 01:40:18;;;;;;;9.90;8.57;;;6.90;99.90;;;;;;5011196;28;20169;-63
2021/11/11 01:42:47;;;;;;;9.47;7.57;;;7.00;99.90;;;;;;5011263;28;20204;-58
2021/11/11 01:45:13;;;;;;;9.23;7.37;;;7.00;99.90;;;;;;5010800;28;20259;-62
2021/11/11 01:47:40;;;;;;;11.33;7.50;;;6.90;99.90;;;;;;5011429;28;20169;-57
2021/11/11 01:50:06;;;;;;;9.47;7.60;;;7.00;99.90;;;;;;5010648;28;20172;-59
2021/11/11 01:52:32;;;;;;;11.00;7.77;;;7.10;99.90;;;;;;5010669;28;20220;-60
2021/11/11 01:54:57;;;;;;;8.57;7.30;;;7.10;99.90;;;;;;5011084;28;20180;-62
2021/11/11 01:57:25;;;;;;;7.90;6.67;;;7.00;99.90;;;;;;5009424;28;20234;-61
2021/11/11 01:59:52;;;;;;;8.43;7.30;;;7.00;99.90;;;;;;5011240;28;20218;-60
2021/11/11 02:02:25;;;;;;;8.80;6.93;;;7.00;99.90;;;;;;5011079;28;20207;-63
2021/11/11 02:04:51;;;;;;;8.87;7.00;;;7.00;99.90;;;;;;5011577;28;20646;-60
2021/11/11 02:07:17;;;;;;;8.53;7.13;;;6.90;99.90;;;;;;5011223;28;20187;-59
2021/11/11 02:09:42;;;;;;;9.27;7.93;;;6.80;99.90;;;;;;5011313;28;20180;-59
2021/11/11 02:12:09;;;;;;;9.27;8.20;;;6.80;99.90;;;;;;5009643;28;20274;-58
2021/11/11 02:14:35;;;;;;;8.97;7.13;;;6.80;99.90;;;;;;5011283;28;20223;-60
2021/11/11 02:17:00;;;;;;;9.80;6.93;;;6.80;99.90;;;;;;5011072;28;20638;-59
2021/11/11 02:19:26;;;;;;;9.20;7.80;;;6.80;99.90;;;;;;5011156;28;20172;-62
2021/11/11 02:21:53;;;;;;;8.67;7.70;;;6.80;99.90;;;;;;5009701;28;20200;-64
2021/11/11 02:24:19;;;;;;;9.73;7.93;;;6.70;99.90;;;;;;5008805;28;20180;-59
2021/11/11 02:26:45;;;;;;;9.83;7.23;;;6.70;99.90;;;;;;4993777;28;20683;-58
2021/11/11 02:29:11;;;;;;;8.27;7.47;;;6.70;99.90;;;;;;4990908;28;20180;-60
2021/11/11 02:31:37;;;;;;;8.17;6.77;;;6.80;99.90;;;;;;4991363;28;20211;-63
2021/11/11 02:34:02;;;;;;;8.40;7.07;;;6.70;99.90;;;;;;4991835;28;20197;-61
2021/11/11 02:36:28;;;;;;;8.17;7.20;;;6.70;99.90;;;;;;4991474;28;20257;-62
2021/11/11 02:38:54;;;;;;;7.93;7.03;;;6.70;99.90;;;;;;4991078;28;20193;-63
2021/11/11 02:41:20;;;;;;;9.30;7.23;;;6.70;99.90;;;;;;4991930;28;20711;-62
2021/11/11 02:43:47;;;;;;;8.03;6.97;;;6.70;99.90;;;;;;4990701;28;20203;-62
2021/11/11 02:46:13;;;;;;;10.07;6.70;;;6.70;99.90;;;;;;4990976;28;20575;-56
2021/11/11 02:48:39;;;;;;;10.33;7.20;;;6.60;99.90;;;;;;4991006;28;20177;-60
2021/11/11 02:51:04;;;;;;;8.30;7.43;;;6.30;99.90;;;;;;4990674;28;20742;-61
2021/11/11 02:53:30;;;;;;;22.50;7.40;;;6.10;99.90;;;;;;4990711;28;20220;-57
2021/11/11 02:55:56;;;;;;;11.60;7.83;;;6.00;99.90;;;;;;4993485;28;20580;-57
2021/11/11 02:58:23;;;;;;;7.93;6.93;;;6.00;99.90;;;;;;4995301;28;20192;-60
2021/11/11 03:00:55;;;;;;;9.77;7.93;;;6.00;99.90;;;;;;4994429;28;20196;-57
2021/11/11 03:03:21;;;;;;;7.10;6.30;;;6.00;99.90;;;;;;4994497;28;20181;-61
2021/11/11 03:05:46;;;;;;;7.67;6.70;;;5.90;99.90;;;;;;4993415;28;20346;-61
2021/11/11 03:08:12;;;;;;;8.03;7.20;;;5.90;99.90;;;;;;4994706;28;20272;-57
2021/11/11 03:10:41;;;;;;;7.93;7.07;;;5.90;99.90;;;;;;4994460;28;20219;-56
2021/11/11 03:13:08;;;;;;;7.27;6.57;;;5.90;99.90;;;;;;4994285;28;20567;-57
2021/11/11 03:15:34;;;;;;;7.53;6.77;;;5.80;99.90;;;;;;4994620;28;20206;-56
2021/11/11 03:18:01;;;;;;;7.37;6.67;;;5.70;99.90;;;;;;4994301;28;20192;-59
2021/11/11 03:20:27;;;;;;;9.00;7.10;;;6.10;99.90;;;;;;4994450;28;20180;-55
2021/11/11 03:22:53;;;;;;;9.77;8.03;;;5.80;99.90;;;;;;4994246;28;20181;-61
2021/11/11 03:25:22;;;;;;;9.50;8.33;;;5.80;99.90;;;;;;4994766;28;20686;-59
2021/11/11 03:27:50;;;;;;;12.07;9.87;;;5.90;99.90;;;;;;4994093;28;20212;-60
2021/11/11 03:30:17;;;;;;;10.63;9.20;;;5.90;99.90;;;;;;4994247;28;20177;-57
2021/11/11 03:32:43;;;;;;;10.93;8.90;;;6.00;99.90;;;;;;4994441;28;20401;-55
2021/11/11 03:35:10;;;;;;;12.53;9.53;;;6.00;99.90;;;;;;4994113;28;20169;-60
2021/11/11 03:37:36;;;;;;;13.17;9.83;;;5.90;99.90;;;;;;4994163;28;20264;-57
2021/11/11 03:40:07;;;;;;;11.90;10.17;;;5.80;99.90;;;;;;4994037;28;20177;-55
2021/11/11 03:42:32;;;;;;;11.33;9.93;;;5.90;99.90;;;;;;4993786;28;20193;-61
2021/11/11 03:44:58;;;;;;;13.50;9.73;;;5.90;99.90;;;;;;4993552;28;20666;-60
2021/11/11 03:47:23;;;;;;;11.43;9.03;;;5.80;99.90;;;;;;4994034;28;20181;-58
2021/11/11 03:49:49;;;;;;;9.20;8.23;;;5.80;99.90;;;;;;4995399;28;20196;-57
2021/11/11 03:52:15;;;;;;;11.43;8.93;;;5.80;99.90;;;;;;4994465;28;20761;-63
2021/11/11 03:54:41;;;;;;;9.53;8.07;;;5.90;99.90;;;;;;4994272;28;20194;-57
2021/11/11 03:57:07;;;;;;;10.20;8.57;;;6.00;99.90;;;;;;4994442;28;20201;-58
2021/11/11 03:59:36;;;;;;;10.20;8.70;;;6.00;99.90;;;;;;4993540;28;20213;-58
2021/11/11 04:02:02;;;;;;;12.23;8.90;;;6.10;99.90;;;;;;4993470;28;20575;-61
2021/11/11 04:04:28;;;;;;;14.80;8.60;;;6.10;99.90;;;;;;4993704;28;20169;-56
2021/11/11 04:06:53;;;;;;;11.37;9.10;;;6.10;99.90;;;;;;4993406;28;20220;-60
2021/11/11 04:09:19;;;;;;;10.63;8.13;;;6.00;99.90;;;;;;4993599;28;20204;-61
2021/11/11 04:11:45;;;;;;;12.23;8.80;;;5.90;99.90;;;;;;4992990;28;20209;-61
2021/11/11 04:14:11;;;;;;;9.70;8.20;;;5.80;99.90;;;;;;4992946;28;20284;-61
2021/11/11 04:16:36;;;;;;;10.97;8.90;;;5.80;99.90;;;;;;4993577;28;20723;-61
2021/11/11 04:19:03;;;;;;;22.10;9.47;;;5.80;99.90;;;;;;4993341;28;20234;-56
2021/11/11 04:21:29;;;;;;;11.40;9.90;;;5.70;99.90;;;;;;4993207;28;20189;-58
2021/11/11 04:23:54;;;;;;;11.10;9.53;;;5.50;99.90;;;;;;4994034;28;20390;-57
2021/11/11 04:26:34;;;;;;;10.77;9.10;;;5.30;99.90;;;;;;4993439;28;20207;-60
2021/11/11 04:29:06;;;;;;;10.30;9.27;;;5.30;99.90;;;;;;4993221;28;20213;-61
2021/11/11 04:31:41;;;;;;;9.93;8.60;;;5.30;99.90;;;;;;4993051;28;20240;-61
2021/11/11 04:34:10;;;;;;;9.87;8.83;;;5.40;99.90;;;;;;4993012;28;20208;-57
2021/11/11 04:44:51;;;;;;;11.50;9.57;;;5.00;99.90;;;;;;4992814;28;20177;-61
2021/11/11 04:52:52;;;;;;;13.80;12.30;;;5.20;99.90;;;;;;4992490;28;20668;-60
2021/11/11 05:03:45;;;;;;;18.43;15.47;;;5.10;99.90;;;;;;4970713;28;20600;-56
2021/11/11 05:06:12;;;;;;;16.10;13.63;;;5.10;99.90;;;;;;4970589;28;20177;-58
2021/11/11 05:08:38;;;;;;;19.17;14.43;;;5.20;99.90;;;;;;4971003;28;20182;-59
2021/11/11 05:11:04;;;;;;;17.83;15.47;;;5.40;99.90;;;;;;4970825;28;20706;-59
2021/11/11 05:13:30;;;;;;;21.53;17.20;;;5.50;99.90;;;;;;4982389;28;20228;-56
2021/11/11 05:15:56;;;;;;;26.93;20.33;;;6.60;99.90;;;;;;4989800;28;20196;-58
2021/11/11 05:18:21;;;;;;;23.63;20.13;;;5.50;99.90;;;;;;4990061;28;20177;-60
2021/11/11 05:20:47;;;;;;;27.03;21.43;;;5.50;99.90;;;;;;4989660;28;20328;-60
2021/11/11 05:23:13;;;;;;;35.13;21.90;;;5.50;99.90;;;;;;4989792;28;20185;-60
2021/11/11 05:25:39;;;;;;;45.07;21.90;;;5.60;99.90;;;;;;4990221;28;20185;-65
2021/11/11 05:28:05;;;;;;;25.67;20.83;;;5.70;99.90;;;;;;4989726;28;20599;-58
2021/11/11 05:30:32;;;;;;;25.80;21.73;;;5.70;99.90;;;;;;4989620;28;20245;-60
2021/11/11 05:32:58;;;;;;;25.00;20.47;;;5.70;99.90;;;;;;5006442;23;20245;-49
2021/11/11 05:35:24;;;;;;;32.07;24.63;;;5.80;99.90;;;;;;4993755;28;20185;-51
2021/11/11 05:37:49;;;;;;;27.07;21.90;;;5.80;99.90;;;;;;4992558;28;20268;-53
2021/11/11 05:40:17;;;;;;;26.60;21.60;;;5.70;99.90;;;;;;4992149;28;20691;-55
2021/11/11 05:42:43;;;;;;;25.00;21.30;;;5.60;99.90;;;;;;4992201;28;20281;-56
2021/11/11 05:45:09;;;;;;;25.83;21.10;;;5.60;99.90;;;;;;4991957;28;20173;-49
2021/11/11 05:47:36;;;;;;;36.07;22.67;;;5.70;99.90;;;;;;4992143;28;20710;-56
2021/11/11 05:50:03;;;;;;;23.80;20.03;;;5.70;99.90;;;;;;4992392;28;20185;-50
2021/11/11 05:52:29;;;;;;;70.23;22.13;;;5.70;99.90;;;;;;4991771;28;20209;-50
2021/11/11 05:54:54;;;;;;;26.67;20.90;;;5.80;99.90;;;;;;4991696;28;20184;-49
2021/11/11 05:57:20;;;;;;;27.77;21.27;;;5.70;99.90;;;;;;4991824;28;20593;-51
2021/11/11 05:59:46;;;;;;;25.63;20.53;;;5.60;99.90;;;;;;4991522;28;20252;-53
2021/11/11 06:02:13;;;;;;;23.87;19.80;;;5.70;99.90;;;;;;4991514;28;20184;-55
2021/11/11 06:04:39;;;;;;;22.23;18.00;;;5.80;99.90;;;;;;4991598;28;20220;-54
2021/11/11 06:07:06;;;;;;;23.67;19.47;;;5.90;99.90;;;;;;4991583;28;20165;-50
2021/11/11 06:09:31;;;;;;;23.33;18.20;;;6.10;99.90;;;;;;4991391;28;20173;-49
2021/11/11 06:11:57;;;;;;;20.60;17.23;;;6.20;99.90;;;;;;4991036;28;20228;-52
2021/11/11 06:14:23;;;;;;;23.67;19.13;;;6.20;99.90;;;;;;4991460;28;20197;-49
2021/11/11 06:16:48;;;;;;;22.13;18.47;;;6.30;99.90;;;;;;4991228;28;20594;-52
2021/11/11 06:19:15;;;;;;;22.03;18.23;;;6.30;99.90;;;;;;4991495;28;20169;-54
2021/11/11 06:21:41;;;;;;;20.70;16.77;;;6.30;99.90;;;;;;4991311;28;20173;-53
2021/11/11 06:24:07;;;;;;;19.07;16.37;;;6.20;99.90;;;;;;4990543;28;20256;-49
2021/11/11 06:26:34;;;;;;;19.27;16.40;;;6.30;99.90;;;;;;4990986;28;20177;-54
2021/11/11 06:29:00;;;;;;;20.13;15.90;;;6.30;99.90;;;;;;5001275;28;20231;-49
2021/11/11 06:31:26;;;;;;;19.57;17.43;;;6.40;99.90;;;;;;5011072;28;20188;-47
2021/11/11 06:33:52;;;;;;;18.87;16.40;;;6.40;99.90;;;;;;5015620;28;20204;-51
2021/11/11 06:36:17;;;;;;;19.13;14.67;;;6.50;99.90;;;;;;5023710;28;20206;-47
2021/11/11 06:38:43;;;;;;;18.10;14.83;;;6.50;99.90;;;;;;5010990;28;20207;-53
2021/11/11 06:41:09;;;;;;;17.70;15.47;;;6.50;99.90;;;;;;5008973;28;20543;-54
2021/11/11 06:43:36;;;;;;;20.00;15.33;;;6.60;99.90;;;;;;4989210;28;20283;-55
2021/11/11 06:46:03;;;;;;;20.20;16.07;;;6.60;99.90;;;;;;4989942;28;20605;-55
2021/11/11 06:48:29;;;;;;;21.00;17.00;;;6.60;99.90;;;;;;4990197;28;20185;-51
2021/11/11 06:50:55;;;;;;;21.63;16.40;;;6.70;99.90;;;;;;4990333;28;20203;-51
2021/11/11 06:53:21;;;;;;;20.30;16.23;;;6.70;99.90;;;;;;4989878;28;20283;-54
2021/11/11 06:55:47;;;;;;;23.53;17.70;;;6.60;99.90;;;;;;4989764;28;20271;-50
2021/11/11 06:58:15;;;;;;;24.97;20.13;;;6.60;99.90;;;;;;4991058;28;20775;-50
2021/11/11 07:00:42;;;;;;;23.13;17.37;;;6.70;99.90;;;;;;4990668;28;20185;-50
2021/11/11 07:03:08;;;;;;;23.50;17.67;;;6.60;99.90;;;;;;4990673;28;20284;-50
2021/11/11 07:05:34;;;;;;;25.13;20.70;;;6.30;99.90;;;;;;4973479;28;20260;-48
2021/11/11 07:07:59;;;;;;;24.93;19.77;;;6.10;99.90;;;;;;4991880;28;20173;-47
2021/11/11 07:10:26;;;;;;;26.47;20.27;;;6.10;99.90;;;;;;5009022;28;20176;-51
2021/11/11 07:12:51;;;;;;;24.20;20.80;;;6.00;99.90;;;;;;5010442;28;20209;-51
2021/11/11 07:15:18;;;;;;;26.23;20.00;;;5.90;99.90;;;;;;5010156;28;20169;-52
2021/11/11 07:17:44;;;;;;;22.97;18.77;;;6.00;99.90;;;;;;5009728;28;20168;-48
2021/11/11 07:20:14;;;;;;;22.70;18.70;;;6.10;99.90;;;;;;5008081;28;20195;-47
2021/11/11 07:22:43;;;;;;;24.33;19.53;;;6.10;99.90;;;;;;5009656;28;20176;-49
2021/11/11 07:25:10;;;;;;;24.87;19.57;;;6.10;99.90;;;;;;5008844;28;20659;-50
2021/11/11 07:27:36;;;;;;;26.80;20.43;;;6.20;99.90;;;;;;5009734;28;20192;-49
2021/11/11 07:30:08;;;;;;;24.50;19.57;;;6.20;99.90;;;;;;5008731;28;20227;-48
2021/11/11 07:32:34;;;;;;;25.57;19.63;;;6.30;99.90;;;;;;5009732;28;20214;-49
2021/11/11 07:34:59;;;;;;;26.83;21.20;;;6.50;99.90;;;;;;5009910;28;20172;-49
2021/11/11 07:37:25;;;;;;;28.37;22.47;;;6.50;99.90;;;;;;5010336;28;20246;-52
2021/11/11 07:39:52;;;;;;;27.43;21.63;;;6.60;99.90;;;;;;5009913;28;20184;-49
2021/11/11 07:42:20;;;;;;;23.17;19.03;;;6.70;99.90;;;;;;5011315;28;20172;-48
2021/11/11 07:44:46;;;;;;;25.80;20.03;;;6.60;99.90;;;;;;5013679;28;20227;-51
2021/11/11 07:47:11;;;;;;;23.93;19.47;;;6.60;99.90;;;;;;5013491;28;20177;-51
2021/11/11 07:49:37;;;;;;;23.20;18.63;;;6.70;99.90;;;;;;5010325;28;20238;-51
2021/11/11 07:52:03;;;;;;;25.40;19.10;;;6.90;99.90;;;;;;4993026;28;20177;-47
2021/11/11 07:54:28;;;;;;;25.63;20.87;;;7.00;99.90;;;;;;4993911;28;20204;-50
2021/11/11 07:56:55;;;;;;;22.90;18.43;;;7.00;99.90;;;;;;4993645;28;20173;-47
2021/11/11 07:59:21;;;;;;;24.13;19.00;;;6.90;99.90;;;;;;4993889;28;20180;-51
2021/11/11 08:01:46;;;;;;;22.73;18.60;;;7.00;99.90;;;;;;4993755;28;20178;-55
2021/11/11 08:04:12;;;;;;;21.07;17.73;;;7.10;99.90;;;;;;4992746;28;20193;-50
2021/11/11 08:06:37;;;;;;;24.23;18.83;;;7.20;99.90;;;;;;4994161;28;20181;-55
2021/11/11 08:09:03;;;;;;;23.70;18.50;;;7.30;99.90;;;;;;4993795;28;20247;-48
2021/11/11 08:11:29;;;;;;;21.83;18.60;;;7.40;99.90;;;;;;4993861;28;20188;-50
2021/11/11 08:13:55;;;;;;;23.00;18.03;;;7.50;99.90;;;;;;4993710;28;20304;-49
2021/11/11 08:16:21;;;;;;;21.90;18.23;;;7.60;99.90;;;;;;4993956;28;20174;-48
2021/11/11 08:18:46;;;;;;;20.43;17.43;;;7.60;99.90;;;;;;4993776;28;20243;-51
2021/11/11 08:21:12;;;;;;;21.63;17.97;;;7.60;99.90;;;;;;4993577;28;20674;-51
2021/11/11 08:23:38;;;;;;;21.60;17.07;;;7.50;99.90;;;;;;4992033;28;20256;-51
2021/11/11 08:26:05;;;;;;;20.87;17.93;;;7.50;99.90;;;;;;4993122;28;20188;-52
2021/11/11 08:28:32;;;;;;;22.47;18.20;;;7.60;99.90;;;;;;4993260;28;20236;-50
2021/11/11 08:30:57;;;;;;;19.13;16.23;;;7.70;99.90;;;;;;4993484;28;20211;-53
2021/11/11 08:33:23;;;;;;;21.17;17.00;;;7.70;99.90;;;;;;4992584;28;20252;-52
2021/11/11 08:35:49;;;;;;;22.17;18.17;;;7.80;99.90;;;;;;4993200;28;20232;-53
2021/11/11 08:38:15;;;;;;;20.03;17.00;;;7.70;99.90;;;;;;4992932;28;20268;-51
2021/11/11 08:40:41;;;;;;;20.80;17.63;;;7.50;99.90;;;;;;4992962;28;20235;-55
2021/11/11 08:43:07;;;;;;;40.60;18.83;;;7.50;99.90;;;;;;4992823;28;20733;-54
2021/11/11 08:45:34;;;;;;;30.10;19.13;;;7.20;99.90;;;;;;4992899;28;20181;-53
2021/11/11 08:48:01;;;;;;;25.40;19.83;;;6.90;99.90;;;;;;4992881;28;20196;-52
2021/11/11 08:50:30;;;;;;;30.67;20.10;;;6.70;99.90;;;;;;4992703;28;20556;-56
2021/11/11 08:52:58;;;;;;;26.93;19.80;;;6.50;99.90;;;;;;4992472;28;20247;-50
2021/11/11 08:55:26;;;;;;;23.40;18.40;;;6.30;99.90;;;;;;4992738;28;20184;-50
2021/11/11 08:57:52;;;;;;;23.43;18.73;;;6.40;99.90;;;;;;4992798;28;20180;-52
2021/11/11 09:00:21;;;;;;;23.10;18.47;;;6.60;99.90;;;;;;4992927;28;20177;-50
2021/11/11 09:02:50;;;;;;;24.27;18.40;;;6.80;99.90;;;;;;4992334;28;20212;-51
2021/11/11 09:05:18;;;;;;;21.50;17.57;;;7.00;99.90;;;;;;5002192;28;20250;-50
2021/11/11 09:07:43;;;;;;;22.10;18.37;;;7.20;99.90;;;;;;5011865;28;20213;-52
2021/11/11 09:10:12;;;;;;;23.83;18.53;;;7.40;99.90;;;;;;5012163;28;20211;-51
2021/11/11 09:12:38;;;;;;;21.43;17.70;;;7.60;99.90;;;;;;5011698;28;20204;-50
2021/11/11 09:15:10;;;;;;;23.97;18.53;;;7.80;99.90;;;;;;5011837;28;20662;-51
2021/11/11 09:17:36;;;;;;;24.03;19.07;;;8.00;99.90;;;;;;5012193;28;20555;-52
2021/11/11 09:20:02;;;;;;;22.03;18.40;;;8.10;99.90;;;;;;5011647;28;20196;-50
2021/11/11 09:22:31;;;;;;;25.47;19.67;;;8.20;99.90;;;;;;5011536;28;20169;-51
2021/11/11 09:24:56;;;;;;;23.23;18.83;;;8.20;99.90;;;;;;5011248;28;20185;-51
2021/11/11 09:27:22;;;;;;;24.63;19.60;;;8.30;99.90;;;;;;5007277;28;20528;-52
2021/11/11 09:29:47;;;;;;;23.67;19.47;;;8.40;99.90;;;;;;5009971;28;20187;-51
2021/11/11 09:32:13;;;;;;;24.17;19.73;;;8.50;99.90;;;;;;5010086;28;20211;-54
2021/11/11 09:34:38;;;;;;;22.90;18.23;;;8.60;99.90;;;;;;5011411;28;20215;-50
2021/11/11 09:37:04;;;;;;;23.83;19.57;;;8.60;99.90;;;;;;5011110;28;20535;-53
2021/11/11 09:39:30;;;;;;;23.70;18.83;;;8.60;99.90;;;;;;5011573;28;20666;-54
2021/11/11 09:41:58;;;;;;;23.23;18.37;;;8.60;99.90;;;;;;5011121;28;20192;-53
2021/11/11 09:44:25;;;;;;;22.30;18.37;;;8.70;99.90;;;;;;5011427;28;20196;-54
2021/11/11 09:46:52;;;;;;;24.53;19.70;;;8.80;99.90;;;;;;5011656;28;20188;-50
2021/11/11 09:49:20;;;;;;;26.07;20.10;;;8.80;99.90;;;;;;5011452;28;20654;-53
2021/11/11 09:51:47;;;;;;;28.17;20.70;;;8.60;99.90;;;;;;5011124;28;20184;-51
2021/11/11 09:59:33;;;;;;;26.47;21.23;;;8.10;99.90;;;;;;4991880;28;20325;-54
2021/11/11 10:02:00;;;;;;;25.33;19.83;;;7.90;99.90;;;;;;5010903;28;20203;-50
2021/11/11 10:04:26;;;;;;;27.43;21.70;;;7.60;99.90;;;;;;5008427;28;20192;-53
2021/11/11 10:06:52;;;;;;;28.57;21.47;;;7.50;99.90;;;;;;5006533;28;20606;-50
2021/11/11 10:09:21;;;;;;;24.37;19.53;;;7.70;99.90;;;;;;5011228;28;20180;-53
2021/11/11 10:11:53;;;;;;;26.33;20.63;;;7.90;99.90;;;;;;5010619;28;20198;-58
2021/11/11 10:14:24;;;;;;;25.80;20.57;;;8.10;99.90;;;;;;5009618;28;20237;-57
2021/11/11 10:16:57;;;;;;;30.40;24.00;;;8.20;99.90;;;;;;5009333;28;20172;-54
2021/11/11 10:19:23;;;;;;;26.77;20.40;;;8.20;99.90;;;;;;5010676;28;20164;-50
2021/11/11 10:21:58;;;;;;;25.30;20.23;;;8.20;99.90;;;;;;5010899;28;20172;-51
2021/11/11 10:24:31;;;;;;;27.13;21.47;;;8.10;99.90;;;;;;5010672;28;20237;-54
2021/11/11 10:27:05;;;;;;;23.57;19.13;;;8.10;99.90;;;;;;5010954;28;20671;-49
2021/11/11 10:29:42;;;;;;;24.23;19.40;;;7.80;99.90;;;;;;5010840;28;20214;-51
2021/11/11 10:32:36;;;;;;;33.50;19.90;;;7.70;99.90;;;;;;5010688;28;20701;-54
2021/11/11 10:35:13;;;;;;;23.77;18.63;;;7.70;99.90;;;;;;5007850;28;20295;-50
2021/11/11 10:37:52;;;;;;;24.43;19.03;;;7.80;99.90;;;;;;5010854;28;20184;-50
2021/11/11 10:40:22;;;;;;;24.73;19.97;;;7.90;99.90;;;;;;5010592;28;20271;-49
2021/11/11 10:42:50;;;;;;;35.27;21.87;;;7.90;99.90;;;;;;5010192;28;20223;-51
2021/11/11 10:45:22;;;;;;;23.90;19.30;;;7.80;99.90;;;;;;5010909;28;20176;-50
2021/11/11 10:47:50;;;;;;;25.87;19.03;;;9.20;99.90;;;;;;5010547;28;20877;-52
2021/11/11 10:50:22;;;;;;;25.37;20.07;;;8.00;99.90;;;;;;5010817;28;20173;-50
2021/11/11 10:52:54;;;;;;;25.50;20.03;;;8.20;99.90;;;;;;5010044;28;20978;-50
2021/11/11 10:55:21;;;;;;;25.37;20.13;;;8.40;99.90;;;;;;4999511;28;20667;-50
2021/11/11 10:57:51;;;;;;;26.57;21.37;;;8.50;99.90;;;;;;4990874;28;20169;-51
2021/11/11 11:00:16;;;;;;;26.33;21.53;;;8.60;99.90;;;;;;4991118;28;20161;-50
2021/11/11 11:02:58;;;;;;;33.80;22.03;;;8.70;99.90;;;;;;4990895;28;20244;-50
2021/11/11 11:05:34;;;;;;;26.27;21.83;;;8.50;99.90;;;;;;4990751;28;20171;-50
2021/11/11 11:08:05;;;;;;;30.47;23.80;;;8.10;99.90;;;;;;4991230;28;20173;-52
2021/11/11 11:10:33;;;;;;;28.90;23.07;;;8.00;99.90;;;;;;4990657;28;20181;-55
2021/11/11 11:13:06;;;;;;;31.27;23.73;;;8.00;99.90;;;;;;4990785;28;20209;-50
2021/11/11 11:15:48;;;;;;;30.00;23.10;;;8.00;99.90;;;;;;5002056;28;20554;-52
2021/11/11 11:18:16;;;;;;;33.07;24.50;;;8.10;99.90;;;;;;5014694;28;20177;-52
2021/11/11 11:20:42;;;;;;;31.80;24.10;;;8.10;99.90;;;;;;5014277;28;20603;-53
2021/11/11 11:23:09;;;;;;;35.67;24.87;;;8.00;99.90;;;;;;5013971;28;20188;-50
2021/11/11 11:25:35;;;;;;;29.80;22.87;;;8.00;99.90;;;;;;5014698;28;20184;-54
2021/11/11 11:28:01;;;;;;;30.77;23.63;;;8.00;99.90;;;;;;5014250;28;20627;-51
2021/11/11 11:30:41;;;;;;;31.03;24.17;;;8.10;99.90;;;;;;5014565;28;20173;-50
2021/11/11 11:33:29;;;;;;;30.23;23.47;;;8.00;99.90;;;;;;5012998;28;20262;-50
2021/11/11 11:35:55;;;;;;;29.37;22.87;;;7.80;99.90;;;;;;5011849;28;20200;-50
2021/11/11 11:38:23;;;;;;;28.77;22.63;;;8.00;99.90;;;;;;5013526;28;20199;-50
2021/11/11 11:40:48;;;;;;;27.83;21.57;;;8.20;99.90;;;;;;5010974;28;20172;-50
2021/11/11 11:43:26;;;;;;;29.27;23.57;;;8.50;99.90;;;;;;5012881;28;20195;-53
2021/11/11 11:45:52;;;;;;;28.87;22.90;;;8.70;99.90;;;;;;5011498;28;20179;-52
2021/11/11 11:48:21;;;;;;;26.63;21.83;;;8.90;99.90;;;;;;5013018;28;20251;-53
2021/11/11 11:50:52;;;;;;;26.80;20.83;;;8.90;99.90;;;;;;5013398;28;20174;-49
2021/11/11 11:53:22;;;;;;;31.73;24.87;;;8.80;99.90;;;;;;5013104;28;20207;-51
2021/11/11 11:55:53;;;;;;;29.17;22.57;;;8.70;99.90;;;;;;5012886;28;20172;-52
2021/11/11 12:03:58;;;;;;;29.30;23.93;;;8.90;99.90;;;;;;5012697;28;20243;-51
2021/11/11 12:14:31;;;;;;;26.40;21.30;;;9.10;99.90;;;;;;5010521;28;20204;-51
2021/11/11 12:40:03;;;;;;;26.33;21.57;;;8.80;99.90;;;;;;4999903;28;20184;-55
2021/11/11 12:42:42;;;;;;;27.57;22.33;;;9.10;99.90;;;;;;4999485;28;20198;-57
2021/11/11 12:45:13;;;;;;;27.30;23.60;;;9.20;99.90;;;;;;4999811;28;20173;-54
2021/11/11 12:48:15;;;;;;;26.83;22.33;;;9.20;99.90;;;;;;4999882;28;20173;-55
2021/11/11 12:51:00;;;;;;;32.17;23.67;;;9.20;99.90;;;;;;4938254;29;20182;-55
2021/11/11 12:53:35;;;;;;;29.27;24.53;;;9.20;99.90;;;;;;4937657;29;20222;-55
2021/11/11 12:56:01;;;;;;;34.47;26.27;;;9.20;99.90;;;;;;4937546;29;20202;-58
2021/11/11 12:58:34;;;;;;;29.67;23.47;;;9.10;99.90;;;;;;4938750;29;20549;-51
2021/11/11 13:01:06;;;;;;;30.87;24.33;;;8.90;99.90;;;;;;4939307;29;20183;-54
2021/11/11 13:03:48;;;;;;;29.07;23.30;;;8.70;99.90;;;;;;4940057;29;20189;-52
2021/11/11 13:06:41;;;;;;;30.80;25.30;;;8.60;99.90;;;;;;4930561;29;20199;-51
2021/11/11 13:09:11;;;;;;;29.93;24.53;;;8.30;99.90;;;;;;4941375;29;20712;-53
2021/11/11 13:11:41;;;;;;;31.67;25.00;;;8.30;99.90;;;;;;4940424;29;20215;-57
2021/11/11 13:14:27;;;;;;;31.83;23.73;;;8.20;99.90;;;;;;4940834;29;20210;-53
2021/11/11 13:16:59;;;;;;;32.37;24.43;;;8.20;99.90;;;;;;4940491;29;20610;-58
2021/11/11 13:19:42;;;;;;;28.63;24.03;;;8.40;99.90;;;;;;4939684;29;20183;-55
2021/11/11 13:22:17;;;;;;;31.17;24.50;;;8.60;99.90;;;;;;4938264;29;20733;-57
2021/11/11 13:59:39;;;;;;;37.13;27.60;;;8.60;99.90;;;;;;4999692;28;20184;-55
2021/11/11 16:26:38;;;;;;;42.67;32.63;;;8.90;99.90;;;;;;5002021;28;20177;-52
2021/11/11 16:29:04;;;;;;;43.63;32.13;;;9.00;99.90;;;;;;5000535;28;20583;-57
2021/11/11 16:31:30;;;;;;;44.00;32.53;;;9.00;99.90;;;;;;4999742;28;20675;-57
2021/11/11 16:33:58;;;;;;;116.10;76.73;;;9.00;99.90;;;;;;4999546;28;20212;-54
2021/11/11 16:36:23;;;;;;;78.50;54.67;;;9.10;99.90;;;;;;5018024;28;20199;-55
2021/11/11 16:38:50;;;;;;;42.27;31.83;;;9.20;99.90;;;;;;5017798;28;20172;-56
2021/11/11 16:41:17;;;;;;;40.43;31.23;;;9.20;99.90;;;;;;5019790;28;20304;-53
2021/11/11 16:43:44;;;;;;;40.63;30.30;;;9.20;99.90;;;;;;5019322;28;20180;-56
2021/11/11 16:46:09;;;;;;;41.53;31.53;;;9.20;99.90;;;;;;5018572;28;20180;-54
2021/11/11 16:48:36;;;;;;;45.23;33.70;;;9.10;99.90;;;;;;5019606;28;20666;-55